createdAt,value
2023-01-23T00:00:48.410Z,37.28
2023-01-23T00:03:22.645Z,35.03
2023-01-23T00:06:05.717Z,28.95
2023-01-23T00:08:38.285Z,35.47
2023-01-23T00:11:17.292Z,27.77
2023-01-23T00:13:49.299Z,31.42
2023-01-23T00:16:23.515Z,34.75
2023-01-23T00:18:55.877Z,29.10
2023-01-23T00:21:30.361Z,31.02
2023-01-23T00:24:02.931Z,32.15
2023-01-23T00:26:35.555Z,27.63
2023-01-23T00:29:08.200Z,33.05
2023-01-23T00:31:40.316Z,28.73
2023-01-23T00:34:15.078Z,34.20
2023-01-23T00:36:47.312Z,33.55
2023-01-23T00:39:20.846Z,35.78
2023-01-23T00:41:52.936Z,29.60
2023-01-23T00:44:25.103Z,28.35
2023-01-23T00:47:03.544Z,29.48
2023-01-23T00:49:35.512Z,29.42
2023-01-23T00:52:07.524Z,29.45
2023-01-23T00:54:39.754Z,30.00
2023-01-23T00:57:11.880Z,28.73
2023-01-23T00:59:43.870Z,29.65
2023-01-23T01:02:15.819Z,26.58
2023-01-23T01:04:48.148Z,33.42
2023-01-23T01:07:20.116Z,32.65
2023-01-23T01:09:52.342Z,30.55
2023-01-23T01:12:27.163Z,30.08
2023-01-23T01:15:10.608Z,29.63
2023-01-23T01:17:42.720Z,30.45
2023-01-23T01:20:15.413Z,27.48
2023-01-23T01:22:47.475Z,27.80
2023-01-23T01:25:19.983Z,29.77
2023-01-23T01:27:56.311Z,26.90
2023-01-23T01:30:29.409Z,27.73
2023-01-23T01:33:01.468Z,33.20
2023-01-23T01:35:33.580Z,29.95
2023-01-23T01:38:05.800Z,28.70
2023-01-23T01:40:38.204Z,27.38
2023-01-23T01:43:23.234Z,28.52
2023-01-23T01:46:09.011Z,27.52
2023-01-23T01:49:02.709Z,29.67
2023-01-23T01:51:41.504Z,26.13
2023-01-23T01:54:20.785Z,26.60
2023-01-23T01:56:59.814Z,28.83
2023-01-23T01:59:41.091Z,27.35
2023-01-23T02:02:35.911Z,28.73
2023-01-23T02:05:11.819Z,26.88
2023-01-23T02:08:21.132Z,26.48
2023-01-23T02:10:53.834Z,27.85
2023-01-23T02:13:34.011Z,26.83
2023-01-23T02:16:19.936Z,33.22
2023-01-23T02:18:54.989Z,32.03
2023-01-23T02:21:28.004Z,27.92
2023-01-23T02:24:17.899Z,27.38
2023-01-23T02:26:49.839Z,26.55
2023-01-23T02:29:21.900Z,27.75
2023-01-23T02:31:56.510Z,27.25
2023-01-23T02:34:30.391Z,29.38
2023-01-23T02:37:02.744Z,28.63
2023-01-23T02:39:34.745Z,24.95
2023-01-23T02:42:07.205Z,29.13
2023-01-23T02:44:39.245Z,30.80
2023-01-23T02:47:12.803Z,27.83
2023-01-23T02:49:45.223Z,27.98
2023-01-23T02:52:17.674Z,29.08
2023-01-23T02:54:49.599Z,32.03
2023-01-23T02:57:21.576Z,27.92
2023-01-23T03:00:11.896Z,27.00
2023-01-23T03:02:44.510Z,31.85
2023-01-23T03:05:17.545Z,27.00
2023-01-23T03:07:49.453Z,34.47
2023-01-23T03:10:21.679Z,28.20
2023-01-23T03:12:54.046Z,29.98
2023-01-23T03:15:27.246Z,27.88
2023-01-23T03:17:59.179Z,29.20
2023-01-23T03:20:38.091Z,28.40
2023-01-23T03:23:10.093Z,26.85
2023-01-23T03:25:45.291Z,27.13
2023-01-23T03:28:35.679Z,28.02
2023-01-23T03:31:07.678Z,30.60
2023-01-23T03:33:43.658Z,26.83
2023-01-23T03:36:15.853Z,32.00
2023-01-23T03:39:06.391Z,35.17
2023-01-23T03:41:42.186Z,34.35
2023-01-23T03:44:14.360Z,34.00
2023-01-23T03:46:51.654Z,33.03
2023-01-23T03:49:23.610Z,35.75
2023-01-23T03:51:55.586Z,33.53
2023-01-23T03:54:28.146Z,32.50
2023-01-23T03:57:00.318Z,29.73
2023-01-23T03:59:32.352Z,27.80
2023-01-23T04:02:07.111Z,35.45
2023-01-23T04:04:39.311Z,28.90
2023-01-23T04:07:11.243Z,26.52
2023-01-23T04:09:43.159Z,27.38
2023-01-23T04:12:15.483Z,27.65
2023-01-23T04:14:47.436Z,28.50
2023-01-23T04:17:19.464Z,32.58
2023-01-23T04:19:51.409Z,28.15
2023-01-23T04:22:23.379Z,26.40
2023-01-23T04:24:55.368Z,27.48
2023-01-23T04:27:27.419Z,29.05
2023-01-23T04:29:59.398Z,28.95
2023-01-23T04:32:31.413Z,31.73
2023-01-23T04:35:04.055Z,28.88
2023-01-23T04:37:36.041Z,35.92
2023-01-23T04:40:08.768Z,30.38
2023-01-23T04:42:51.093Z,34.85
2023-01-23T04:45:23.066Z,30.20
2023-01-23T04:47:55.252Z,33.70
2023-01-23T04:50:29.966Z,28.98
2023-01-23T04:53:03.443Z,31.08
2023-01-23T04:55:35.902Z,33.40
2023-01-23T04:58:11.172Z,26.90
2023-01-23T05:00:43.288Z,29.27
2023-01-23T05:03:16.307Z,28.98
2023-01-23T05:05:49.532Z,29.33
2023-01-23T05:08:21.560Z,26.95
2023-01-23T05:10:53.691Z,28.52
2023-01-23T05:13:27.250Z,27.85
2023-01-23T05:15:59.295Z,27.65
2023-01-23T05:18:31.316Z,27.48
2023-01-23T05:21:03.641Z,26.73
2023-01-23T05:23:36.887Z,31.40
2023-01-23T05:26:09.183Z,30.10
2023-01-23T05:28:41.409Z,28.83
2023-01-23T05:31:14.019Z,30.55
2023-01-23T05:33:46.221Z,27.08
2023-01-23T05:36:18.805Z,27.30
2023-01-23T05:38:57.991Z,25.45
2023-01-23T05:41:29.958Z,25.20
2023-01-23T05:44:01.961Z,26.50
2023-01-23T05:46:34.266Z,26.63
2023-01-23T05:49:06.362Z,25.83
2023-01-23T05:51:38.451Z,29.98
2023-01-23T05:54:11.122Z,29.45
2023-01-23T05:56:43.062Z,26.92
2023-01-23T05:59:15.009Z,27.63
2023-01-23T06:01:46.996Z,27.52
2023-01-23T06:04:19.593Z,27.67
2023-01-23T06:06:51.477Z,28.90
2023-01-23T06:09:23.428Z,32.45
2023-01-23T06:11:55.295Z,27.10
2023-01-23T06:14:27.297Z,30.73
2023-01-23T06:16:59.288Z,27.02
2023-01-23T06:19:31.392Z,26.35
2023-01-23T06:22:03.269Z,27.67
2023-01-23T06:24:35.241Z,28.25
2023-01-23T06:27:08.749Z,28.55
2023-01-23T06:29:40.638Z,27.90
2023-01-23T06:32:12.973Z,27.20
2023-01-23T06:34:45.048Z,27.35
2023-01-23T06:37:16.970Z,29.77
2023-01-23T06:39:48.907Z,32.60
2023-01-23T06:42:20.972Z,32.35
2023-01-23T06:44:52.867Z,29.88
2023-01-23T06:47:25.042Z,31.80
2023-01-23T06:49:57.012Z,30.83
2023-01-23T06:52:29.882Z,30.42
2023-01-23T06:55:01.854Z,29.63
2023-01-23T06:57:35.011Z,30.88
2023-01-23T07:00:07.782Z,29.55
2023-01-23T07:02:40.222Z,30.38
2023-01-23T07:05:12.248Z,29.17
2023-01-23T07:07:44.316Z,33.10
2023-01-23T07:10:16.473Z,33.20
2023-01-23T07:12:48.387Z,36.40
2023-01-23T07:15:20.418Z,31.92
2023-01-23T07:17:52.334Z,29.30
2023-01-23T07:20:27.796Z,34.00
2023-01-23T07:22:59.813Z,35.63
2023-01-23T07:25:31.853Z,30.83
2023-01-23T07:28:04.241Z,31.52
2023-01-23T07:30:36.285Z,31.75
2023-01-23T07:33:08.423Z,32.65
2023-01-23T07:35:40.558Z,29.00
2023-01-23T07:38:12.524Z,28.13
2023-01-23T07:40:45.663Z,31.67
2023-01-23T07:43:17.689Z,30.88
2023-01-23T07:45:50.711Z,29.35
2023-01-23T07:48:22.670Z,29.08
2023-01-23T07:50:54.590Z,27.50
2023-01-23T07:53:26.474Z,29.80
2023-01-23T07:55:58.471Z,29.23
2023-01-23T07:58:30.409Z,27.73
2023-01-23T08:01:11.651Z,27.50
2023-01-23T08:03:43.694Z,28.23
2023-01-23T08:06:15.727Z,29.45
2023-01-23T08:08:50.991Z,31.48
2023-01-23T08:11:24.309Z,31.42
2023-01-23T08:13:56.436Z,28.45
2023-01-23T08:16:28.615Z,29.20
2023-01-23T08:19:00.607Z,28.75
2023-01-23T08:21:32.558Z,27.30
2023-01-23T08:24:05.166Z,30.48
2023-01-23T08:26:37.156Z,28.13
2023-01-23T08:29:09.414Z,28.05
2023-01-23T08:31:41.438Z,30.15
2023-01-23T08:34:13.439Z,28.90
2023-01-23T08:36:45.503Z,28.63
2023-01-23T08:39:18.553Z,30.85
2023-01-23T08:41:51.139Z,28.25
2023-01-23T08:44:24.311Z,28.70
2023-01-23T08:46:56.242Z,30.67
2023-01-23T08:49:28.468Z,28.92
2023-01-23T08:52:00.437Z,26.98
2023-01-23T08:54:33.120Z,30.35
2023-01-23T08:57:05.453Z,29.65
2023-01-23T08:59:37.412Z,27.48
2023-01-23T09:02:12.296Z,28.55
2023-01-23T09:04:44.311Z,27.73
2023-01-23T09:07:16.540Z,31.15
2023-01-23T09:09:48.572Z,33.58
2023-01-23T09:12:20.763Z,31.45
2023-01-23T09:14:52.727Z,35.25
2023-01-23T09:17:25.147Z,36.88
2023-01-23T09:19:59.595Z,37.90
2023-01-23T09:22:32.120Z,34.08
2023-01-23T09:25:04.886Z,32.03
2023-01-23T09:27:36.913Z,30.33
2023-01-23T09:30:09.569Z,29.27
2023-01-23T09:32:41.415Z,30.73
2023-01-23T09:35:13.427Z,31.10
2023-01-23T09:38:00.392Z,30.63
2023-01-23T09:40:38.704Z,27.83
2023-01-23T09:43:39.719Z,31.40
2023-01-23T09:46:11.786Z,31.92
2023-01-23T09:48:46.253Z,29.38
2023-01-23T09:51:40.098Z,32.40
2023-01-23T09:54:49.154Z,30.10
2023-01-23T09:57:35.413Z,26.80
2023-01-23T10:00:21.163Z,28.77
2023-01-23T10:02:57.245Z,32.60
2023-01-23T10:05:41.945Z,28.33
2023-01-23T10:08:37.984Z,33.70
2023-01-23T10:11:44.847Z,29.92
2023-01-23T10:14:30.371Z,32.42
2023-01-23T10:17:25.462Z,28.88
2023-01-23T10:20:15.779Z,31.25
2023-01-23T10:22:55.945Z,30.65
2023-01-23T10:25:33.089Z,35.45
2023-01-23T10:28:35.638Z,33.78
2023-01-23T10:31:35.036Z,31.23
2023-01-23T10:34:09.873Z,32.22
2023-01-23T10:37:19.145Z,30.83
2023-01-23T10:39:59.770Z,28.45
2023-01-23T10:42:31.969Z,31.73
2023-01-23T10:45:04.808Z,27.23
2023-01-23T10:47:44.180Z,28.90
2023-01-23T10:50:17.283Z,29.30
2023-01-23T10:52:49.223Z,29.90
2023-01-23T10:55:24.105Z,31.75
2023-01-23T10:57:59.138Z,27.00
2023-01-23T11:00:38.434Z,28.17
2023-01-23T11:03:22.261Z,30.42
2023-01-23T11:06:09.121Z,27.65
2023-01-23T11:08:52.108Z,30.08
2023-01-23T11:11:27.591Z,28.90
2023-01-23T11:14:24.386Z,30.33
2023-01-23T11:17:12.903Z,28.23
2023-01-23T11:19:47.367Z,29.17
2023-01-23T11:22:38.346Z,29.85
2023-01-23T11:25:38.236Z,27.65
2023-01-23T11:28:36.896Z,29.73
2023-01-23T11:31:21.993Z,26.67
2023-01-23T11:34:02.916Z,28.35
2023-01-23T11:39:43.045Z,29.17
2023-01-23T11:42:16.789Z,29.08
2023-01-23T11:44:50.296Z,30.85
2023-01-23T11:47:34.328Z,31.45
2023-01-23T11:50:54.523Z,35.72
2023-01-23T11:53:53.519Z,35.97
2023-01-23T11:56:56.417Z,36.85
2023-01-23T12:00:07.700Z,34.75
2023-01-23T12:03:07.195Z,34.20
2023-01-23T12:08:58.505Z,31.38
2023-01-23T12:12:09.690Z,32.00
2023-01-23T12:15:21.090Z,32.40
2023-01-23T12:18:12.000Z,32.28
2023-01-23T12:23:45.881Z,33.10
2023-01-23T12:26:20.246Z,34.67
2023-01-23T12:29:09.631Z,31.58
2023-01-23T12:32:00.818Z,32.75
2023-01-23T12:35:20.236Z,34.17
2023-01-23T12:38:03.949Z,34.38
2023-01-23T12:41:17.975Z,32.72
2023-01-23T12:44:05.482Z,33.90
2023-01-23T12:46:42.374Z,33.08
2023-01-23T12:49:34.146Z,31.10
2023-01-23T12:52:24.076Z,32.70
2023-01-23T12:55:20.719Z,29.95
2023-01-23T12:58:08.079Z,32.53
2023-01-23T13:01:09.201Z,29.85
2023-01-23T13:03:59.998Z,32.38
2023-01-23T13:06:47.610Z,33.17
2023-01-23T13:09:30.936Z,32.80
2023-01-23T13:12:13.362Z,32.05
2023-01-23T13:15:06.853Z,28.98
2023-01-23T13:17:49.856Z,32.33
2023-01-23T13:20:51.477Z,30.92
2023-01-23T13:23:36.982Z,32.97
2023-01-23T13:26:23.337Z,30.75
2023-01-23T13:29:02.540Z,31.52
2023-01-23T13:31:40.787Z,35.70
2023-01-23T13:34:18.607Z,36.63
2023-01-23T13:36:52.277Z,35.03
2023-01-23T13:39:29.331Z,36.38
2023-01-23T13:42:16.390Z,37.20
2023-01-23T13:45:16.279Z,33.78
2023-01-23T13:48:16.071Z,35.22
2023-01-23T14:25:35.370Z,34.55
2023-01-23T14:28:07.384Z,35.33
2023-01-23T14:30:39.365Z,35.80
2023-01-23T14:33:17.313Z,37.00
2023-01-23T14:35:49.526Z,34.67
2023-01-23T14:38:32.013Z,32.20
2023-01-23T14:41:08.060Z,33.78
2023-01-23T14:43:43.177Z,33.38
2023-01-23T14:46:30.474Z,35.17
2023-01-23T14:49:04.526Z,32.38
2023-01-23T14:51:36.971Z,32.00
2023-01-23T14:54:23.017Z,32.58
2023-01-23T14:56:56.801Z,35.22
2023-01-23T14:59:34.393Z,35.05
2023-01-23T15:02:21.526Z,33.63
2023-01-23T15:05:18.730Z,31.83
2023-01-23T15:07:58.304Z,32.83
2023-01-23T15:10:41.618Z,32.72
2023-01-23T15:13:35.137Z,32.22
2023-01-23T15:16:14.447Z,33.15
2023-01-23T15:18:53.837Z,35.05
2023-01-23T15:21:38.615Z,37.20
2023-01-23T15:24:10.455Z,38.92
2023-01-23T15:26:55.895Z,34.08
2023-01-23T15:29:27.840Z,34.03
2023-01-23T15:32:01.272Z,34.35
2023-01-23T15:34:34.887Z,34.33
2023-01-23T15:37:22.948Z,36.35
2023-01-23T15:40:03.103Z,34.60
2023-01-23T15:42:37.585Z,36.50
2023-01-23T15:45:14.538Z,33.50
2023-01-23T15:47:46.465Z,39.90
2023-01-23T15:50:18.463Z,40.25
2023-01-23T15:52:52.658Z,39.17
2023-01-23T15:55:27.079Z,37.53
2023-01-23T15:57:59.044Z,38.17
2023-01-23T16:00:31.190Z,36.10
2023-01-23T16:03:03.192Z,41.13
2023-01-23T16:05:37.331Z,39.05
2023-01-23T16:08:20.700Z,42.40
2023-01-23T16:10:52.725Z,40.70
2023-01-23T16:13:24.821Z,37.90
2023-01-23T16:15:56.753Z,38.75
2023-01-23T16:18:28.740Z,39.08
2023-01-23T16:21:00.841Z,39.38
2023-01-23T16:23:46.682Z,39.35
2023-01-23T16:26:22.267Z,39.85
2023-01-23T16:29:01.992Z,36.17
2023-01-23T16:31:44.178Z,36.53
2023-01-23T16:34:16.150Z,39.13
2023-01-23T16:36:54.160Z,39.92
2023-01-23T16:39:28.029Z,38.75
2023-01-23T16:42:00.335Z,38.35
2023-01-23T16:44:32.324Z,40.33
2023-01-23T16:47:04.201Z,40.60
2023-01-23T16:49:50.942Z,41.85
2023-01-23T16:52:25.527Z,37.80
2023-01-23T16:54:57.535Z,38.88
2023-01-23T16:57:29.848Z,43.33
2023-01-23T17:00:01.998Z,42.53
2023-01-23T17:02:34.076Z,40.20
2023-01-23T17:05:06.591Z,42.13
2023-01-23T17:07:38.725Z,41.80
2023-01-23T17:10:18.009Z,43.83
2023-01-23T17:12:53.245Z,42.75
2023-01-23T17:15:28.341Z,43.30
2023-01-23T17:18:01.972Z,43.67
2023-01-23T17:20:33.944Z,43.53
2023-01-23T17:23:05.863Z,46.75
2023-01-23T17:25:50.977Z,45.50
2023-01-23T17:28:30.259Z,47.05
2023-01-23T17:31:02.116Z,44.95
2023-01-23T17:33:33.990Z,49.17
2023-01-23T17:36:07.725Z,46.75
2023-01-23T17:38:42.210Z,47.10
2023-01-23T17:41:15.452Z,46.45
2023-01-23T17:43:48.763Z,50.60
2023-01-23T17:46:27.327Z,45.47
2023-01-23T17:48:59.649Z,45.70
2023-01-23T17:51:33.849Z,49.33
2023-01-23T17:54:06.056Z,44.53
2023-01-23T17:56:38.431Z,44.13
2023-01-23T17:59:10.506Z,46.60
2023-01-23T18:01:42.574Z,46.97
2023-01-23T18:04:19.292Z,45.70
2023-01-23T18:06:51.696Z,45.28
2023-01-23T18:09:23.819Z,52.65
2023-01-23T18:11:56.064Z,52.38
2023-01-23T18:14:42.477Z,56.28
2023-01-23T18:17:22.823Z,60.80
2023-01-23T18:19:55.139Z,59.83
2023-01-23T18:22:27.360Z,56.38
2023-01-23T18:24:59.586Z,54.30
2023-01-23T18:27:37.528Z,49.20
2023-01-23T18:30:18.689Z,44.70
2023-01-23T18:33:02.737Z,44.70
2023-01-23T18:36:00.893Z,47.05
2023-01-23T18:38:53.907Z,46.67
2023-01-23T18:41:27.829Z,44.97
2023-01-23T18:44:05.569Z,44.95
2023-01-23T18:46:37.645Z,44.67
2023-01-23T18:49:13.505Z,48.00
2023-01-23T18:51:58.994Z,47.88
2023-01-23T18:54:43.579Z,51.67
2023-01-23T18:57:50.438Z,55.22
2023-01-23T19:00:28.436Z,47.97
2023-01-23T19:03:17.634Z,53.80
2023-01-23T19:05:49.931Z,53.90
2023-01-23T19:08:31.105Z,47.05
2023-01-23T19:11:07.359Z,50.08
2023-01-23T19:13:55.826Z,54.97
2023-01-23T19:16:32.237Z,55.95
2023-01-23T19:19:28.614Z,51.75
2023-01-23T19:22:00.848Z,46.72
2023-01-23T19:24:33.038Z,50.50
2023-01-23T19:27:11.537Z,50.30
2023-01-23T19:29:43.736Z,52.30
2023-01-23T19:32:16.509Z,54.63
2023-01-23T19:34:48.567Z,56.00
2023-01-23T19:37:20.548Z,47.30
2023-01-23T19:39:52.406Z,50.90
2023-01-23T19:42:24.269Z,45.63
2023-01-23T19:44:56.210Z,49.30
2023-01-23T19:47:28.132Z,45.08
2023-01-23T19:50:00.071Z,43.85
2023-01-23T19:52:32.016Z,46.08
2023-01-23T19:55:04.494Z,47.88
2023-01-23T19:57:36.413Z,51.40
2023-01-23T20:00:09.904Z,47.40
2023-01-23T20:02:41.853Z,49.33
2023-01-23T20:05:13.852Z,51.97
2023-01-23T20:07:45.888Z,48.17
2023-01-23T20:10:18.380Z,45.17
2023-01-23T20:12:55.577Z,44.88
2023-01-23T20:15:28.013Z,46.45
2023-01-23T20:17:59.939Z,49.08
2023-01-23T20:20:31.827Z,48.28
2023-01-23T20:23:03.808Z,49.90
2023-01-23T20:25:35.757Z,49.85
2023-01-23T20:28:08.386Z,52.17
2023-01-23T20:30:40.417Z,55.08
2023-01-23T20:33:12.604Z,51.35
2023-01-23T20:35:44.627Z,49.78
2023-01-23T20:38:16.557Z,50.33
2023-01-23T20:40:49.356Z,48.88
2023-01-23T20:43:21.514Z,53.67
2023-01-23T20:45:53.971Z,48.70
2023-01-23T20:48:26.101Z,52.35
2023-01-23T20:50:58.056Z,54.22
2023-01-23T20:53:31.648Z,57.58
2023-01-23T20:56:19.507Z,54.47
2023-01-23T20:59:10.073Z,51.10
2023-01-23T21:02:12.203Z,56.35
2023-01-23T21:04:46.366Z,53.50
2023-01-23T21:07:21.628Z,56.33
2023-01-23T21:09:53.589Z,56.00
2023-01-23T21:12:25.584Z,53.08
2023-01-23T21:14:57.720Z,58.20
2023-01-23T21:17:29.800Z,59.90
2023-01-23T21:20:01.812Z,62.47
2023-01-23T21:22:33.761Z,62.72
2023-01-23T21:25:06.360Z,61.17
2023-01-23T21:27:38.345Z,62.05
2023-01-23T21:30:10.968Z,60.17
2023-01-23T21:32:43.191Z,55.35
2023-01-23T21:35:15.204Z,57.97
2023-01-23T21:37:47.132Z,56.17
2023-01-23T21:40:19.302Z,54.92
2023-01-23T21:42:51.272Z,54.85
2023-01-23T21:45:23.408Z,58.78
2023-01-23T21:47:55.439Z,58.10
2023-01-23T21:50:27.384Z,60.15
2023-01-23T21:52:59.266Z,62.97
2023-01-23T21:55:31.270Z,63.38
2023-01-23T21:58:03.197Z,63.35
2023-01-23T22:00:53.724Z,62.85
2023-01-23T22:03:25.600Z,56.97
2023-01-23T22:05:59.035Z,61.45
2023-01-23T22:08:30.968Z,57.53
2023-01-23T22:11:05.332Z,59.42
2023-01-23T22:13:37.804Z,55.20
2023-01-23T22:16:09.851Z,55.67
2023-01-23T22:18:41.947Z,60.53
2023-01-23T22:21:13.988Z,62.50
2023-01-23T22:23:45.965Z,64.25
2023-01-23T22:26:18.179Z,57.90
2023-01-23T22:28:51.107Z,57.50
2023-01-23T22:31:23.140Z,55.90
2023-01-23T22:33:56.296Z,56.72
2023-01-23T22:36:28.303Z,58.42
2023-01-23T22:39:00.327Z,53.45
2023-01-23T22:41:32.525Z,56.78
2023-01-23T22:44:04.459Z,55.92
2023-01-23T22:46:36.540Z,56.42
2023-01-23T22:49:08.549Z,54.08
2023-01-23T22:51:40.517Z,56.95
2023-01-23T22:54:12.545Z,59.75
2023-01-23T22:56:44.549Z,55.00
2023-01-23T22:59:16.529Z,55.40
2023-01-23T23:01:48.481Z,52.90
2023-01-23T23:04:20.396Z,56.83
2023-01-23T23:06:52.392Z,55.17
2023-01-23T23:09:24.420Z,50.42
2023-01-23T23:11:56.861Z,54.78
2023-01-23T23:14:28.775Z,54.33
2023-01-23T23:17:00.799Z,55.22
2023-01-23T23:19:33.255Z,55.03
2023-01-23T23:22:05.981Z,54.50
2023-01-23T23:24:38.090Z,53.97
2023-01-23T23:27:10.025Z,53.85
2023-01-23T23:29:41.983Z,57.15
2023-01-23T23:32:14.134Z,56.55
2023-01-23T23:34:46.125Z,50.08
2023-01-23T23:37:18.039Z,61.72
2023-01-23T23:39:50.020Z,52.28
2023-01-23T23:42:21.953Z,50.45
2023-01-23T23:44:53.899Z,49.38
2023-01-23T23:47:25.854Z,53.20
2023-01-23T23:49:58.072Z,51.55
2023-01-23T23:52:29.992Z,53.50
2023-01-23T23:55:01.941Z,50.67
2023-01-23T23:57:33.910Z,52.55
